Mission Rafael, California
Current Conditions -  °F | °C
As of 10:15 PM on Tuesday 21 Oct 2014 (Local Time) from KDVO Reporting Station
Clear Clear  
Wind Chill: 59°   Ceiling: Unl
Heat Index: 59°   Visibility: NA
Dew Point: 50°   Wind: 3mph
Humidity: 72%   Direction: 130°SE
Pressure: 30.04"   Gusts: NA
Location:  37.9585°N, 122.506°W
Report Text: KDVO 220515Z AUTO 13003KT CLR 15/10 A3004 RMK AO2
Loading
Personal Weather Stations






























Interactive Weather Map
Tropical Storm Tracking
New forecast layout! Learn more

10-Day Weather Forecast

Advertisements
Track Severe Weather on mobile